Archiv-/Tagesdaten

--Timestamp---	Temp	Chill	HIndex	Humid	Dewpt	Wind	HiWind	WindDir	Rain	Barom	        Solar	ET	UV
--------------	----	-----	------	-----	-----	----	------	-------	----	-----	        -----	--	--
20081220 00:05	1.1	-1.0	1.1	91	-0.2	6	11	247	0.00	1028.483	0	0.000	0
20081220 00:10	1.1	1.1	1.1	91	-0.2	5	10	247	0.00	1028.483	0	0.000	0
20081220 00:15	1.1	1.1	1.1	91	-0.2	3	8	247	0.00	1028.517	0	0.000	0
20081220 00:20	1.1	1.1	1.1	91	-0.2	5	10	247	0.00	1028.517	0	0.000	0
20081220 00:25	1.0	1.0	1.0	91	-0.3	5	11	270	0.00	1028.551	0	0.000	0
20081220 00:30	1.0	1.0	1.0	90	-0.5	5	10	270	0.00	1028.652	0	0.000	0
20081220 00:35	1.0	1.0	1.0	90	-0.5	3	6	270	0.00	1028.517	0	0.000	0
20081220 00:40	1.0	1.0	1.0	90	-0.5	3	6	270	0.00	1028.517	0	0.000	0
20081220 00:45	0.9	0.9	0.9	90	-0.5	3	6	270	0.00	1028.551	0	0.000	0
20081220 00:50	0.9	0.9	0.9	90	-0.6	3	8	270	0.00	1028.483	0	0.000	0
20081220 00:55	0.8	0.8	0.8	90	-0.6	5	8	270	0.00	1028.517	0	0.000	0
20081220 01:00	0.8	0.8	0.8	90	-0.7	2	5	270	0.00	1028.652	0	0.000	0
20081220 01:05	0.7	0.7	0.7	90	-0.7	3	6	270	0.00	1028.585	0	0.000	0
20081220 01:10	0.7	0.7	0.7	90	-0.8	5	10	225	0.00	1028.618	0	0.000	0
20081220 01:15	0.6	0.6	0.6	90	-0.9	3	5	225	0.00	1028.686	0	0.000	0
20081220 01:20	0.5	0.5	0.5	90	-0.9	3	6	225	0.00	1028.686	0	0.000	0
20081220 01:25	0.4	0.4	0.4	90	-1.0	2	5	225	0.00	1028.788	0	0.000	0
20081220 01:30	0.4	0.4	0.4	91	-0.9	2	5	225	0.00	1028.923	0	0.000	0
20081220 01:35	0.3	0.3	0.3	91	-1.0	2	5	225	0.00	1028.991	0	0.000	0
20081220 01:40	0.3	0.3	0.3	91	-1.0	2	5	225	0.00	1028.957	0	0.000	0
20081220 01:45	0.3	0.3	0.3	91	-1.0	2	6	225	0.00	1028.957	0	0.000	0
20081220 01:50	0.3	0.3	0.3	91	-1.0	3	6	225	0.00	1028.855	0	0.000	0
20081220 01:55	0.3	0.3	0.3	91	-1.0	3	6	247	0.00	1028.754	0	0.000	0
20081220 02:00	0.4	0.4	0.4	91	-0.9	3	10	247	0.00	1028.822	0	0.000	0
20081220 02:05	0.4	0.4	0.4	91	-0.9	3	8	247	0.00	1028.720	0	0.000	0
20081220 02:10	0.4	0.4	0.4	91	-0.9	3	8	247	0.00	1028.822	0	0.000	0
20081220 02:15	0.4	0.4	0.4	91	-0.9	3	8	247	0.00	1028.788	0	0.000	0
20081220 02:20	0.4	0.4	0.4	91	-0.9	5	10	247	0.00	1028.686	0	0.000	0
20081220 02:25	0.4	0.4	0.4	91	-0.9	5	10	247	0.00	1028.686	0	0.000	0
20081220 02:30	0.4	0.4	0.4	91	-0.9	3	8	247	0.00	1028.720	0	0.000	0
20081220 02:35	0.5	0.5	0.5	91	-0.8	3	8	247	0.00	1028.686	0	0.000	0
20081220 02:40	0.6	0.6	0.6	91	-0.7	3	6	225	0.00	1028.720	0	0.000	0
20081220 02:45	0.6	0.6	0.6	91	-0.7	2	6	225	0.00	1028.720	0	0.000	0
20081220 02:50	0.7	0.7	0.7	91	-0.6	3	10	225	0.00	1028.686	0	0.000	0
20081220 02:55	0.7	0.7	0.7	91	-0.6	3	8	247	0.00	1028.585	0	0.000	0
20081220 03:00	0.7	0.7	0.7	91	-0.6	2	6	247	0.00	1028.585	0	0.000	0
20081220 03:05	0.7	0.7	0.7	90	-0.8	3	8	247	0.00	1028.551	0	0.000	0
20081220 03:10	0.7	0.7	0.7	91	-0.6	3	6	247	0.00	1028.551	0	0.000	0
20081220 03:15	0.6	0.6	0.6	91	-0.7	3	8	247	0.00	1028.618	0	0.000	0
20081220 03:20	0.5	0.5	0.5	91	-0.8	3	6	247	0.00	1028.618	0	0.000	0
20081220 03:25	0.4	0.4	0.4	91	-0.9	3	8	247	0.00	1028.618	0	0.000	0
20081220 03:30	0.4	0.4	0.4	91	-0.9	5	10	247	0.00	1028.585	0	0.000	0
20081220 03:35	0.4	0.4	0.4	91	-0.9	5	8	180	0.00	1028.551	0	0.000	0
20081220 03:40	0.4	0.4	0.4	91	-0.9	5	10	225	0.00	1028.483	0	0.000	0
20081220 03:45	0.4	0.4	0.4	91	-0.9	5	11	225	0.00	1028.348	0	0.000	0
20081220 03:50	0.4	0.4	0.4	91	-0.9	3	10	225	0.00	1028.314	0	0.000	0
20081220 03:55	0.5	0.5	0.5	91	-0.8	5	11	225	0.00	1028.348	0	0.000	0
20081220 04:00	0.5	0.5	0.5	91	-0.8	5	10	225	0.00	1028.381	0	0.000	0
20081220 04:05	0.6	0.6	0.6	91	-0.7	5	10	225	0.00	1028.483	0	0.000	0
20081220 04:10	0.6	0.6	0.6	91	-0.7	3	10	225	0.00	1028.551	0	0.000	0
20081220 04:15	0.6	0.6	0.6	91	-0.7	3	16	225	0.00	1028.449	0	0.000	0
20081220 04:20	0.7	0.7	0.7	91	-0.6	3	14	247	0.00	1028.449	0	0.000	0
20081220 04:25	0.8	0.8	0.8	91	-0.5	3	16	225	0.00	1028.517	0	0.000	0
20081220 04:30	0.9	0.9	0.9	91	-0.4	3	10	225	0.00	1028.415	0	0.000	0
20081220 04:35	0.9	0.9	0.9	90	-0.5	3	8	225	0.00	1028.517	0	0.000	0
20081220 04:40	0.9	0.9	0.9	90	-0.5	3	10	225	0.00	1028.551	0	0.000	0
20081220 04:45	1.1	1.1	1.1	90	-0.4	5	8	247	0.00	1028.585	0	0.000	0
20081220 04:50	1.1	1.1	1.1	90	-0.3	5	10	225	0.00	1028.483	0	0.000	0
20081220 04:55	1.1	1.1	1.1	90	-0.3	5	10	225	0.00	1028.381	0	0.000	0
20081220 05:00	1.1	1.1	1.1	90	-0.3	5	19	225	0.00	1028.280	0	0.000	0
20081220 05:05	1.1	1.1	1.1	90	-0.4	5	11	247	0.00	1028.348	0	0.000	0
20081220 05:10	1.1	1.1	1.1	90	-0.3	3	10	247	0.00	1028.381	0	0.000	0
20081220 05:15	1.2	1.2	1.2	89	-0.4	5	10	247	0.00	1028.415	0	0.000	0
20081220 05:20	1.3	1.3	1.3	89	-0.3	5	10	247	0.00	1028.449	0	0.000	0
20081220 05:25	1.3	1.3	1.3	89	-0.3	5	14	247	0.00	1028.348	0	0.000	0
20081220 05:30	1.6	-0.3	1.6	88	-0.2	6	16	225	0.00	1028.381	0	0.000	0
20081220 05:35	1.7	1.7	1.7	88	-0.1	5	21	270	0.00	1028.280	0	0.000	0
20081220 05:40	1.7	-0.2	1.7	88	-0.0	6	14	247	0.00	1028.415	0	0.000	0
20081220 05:45	1.7	1.7	1.7	88	-0.0	5	11	270	0.00	1028.415	0	0.000	0
20081220 05:50	1.8	-1.0	1.8	89	0.2	10	16	270	0.00	1028.415	0	0.000	0
20081220 05:55	2.1	-1.1	2.1	89	0.4	11	24	247	0.00	1028.212	0	0.000	0
20081220 06:00	2.1	-1.1	2.1	89	0.5	11	23	247	0.00	1028.178	0	0.000	0
20081220 06:05	2.1	-1.5	2.1	89	0.4	13	26	247	0.00	1028.280	0	0.000	0
20081220 06:10	2.1	-1.1	2.1	89	0.4	11	21	247	0.00	1028.314	0	0.000	0
20081220 06:15	1.9	-1.6	1.9	89	0.3	13	27	247	0.00	1028.212	0	0.000	0
20081220 06:20	1.9	-1.0	1.9	90	0.4	10	19	270	0.00	1028.144	0	0.000	0
20081220 06:25	1.8	-1.0	1.8	90	0.4	10	24	270	0.20	1028.449	0	0.000	0
20081220 06:30	1.7	-0.7	1.7	90	0.3	8	19	247	0.00	1028.381	0	0.000	0
20081220 06:35	1.7	-1.2	1.7	90	0.2	10	23	270	0.00	1028.415	0	0.000	0
20081220 06:40	1.6	-0.8	1.6	90	0.2	8	14	247	0.00	1028.348	0	0.000	0
20081220 06:45	1.6	-1.4	1.6	90	0.1	10	19	247	0.00	1028.178	0	0.000	0
20081220 06:50	1.6	-1.4	1.6	90	0.1	10	23	247	0.00	1028.077	0	0.000	0
20081220 06:55	1.5	-1.4	1.5	91	0.2	10	21	247	0.20	1028.009	0	0.000	0
20081220 07:00	1.5	-1.4	1.5	91	0.2	10	19	247	0.00	1027.975	0	0.000	0
20081220 07:05	1.4	-1.5	1.4	91	0.1	10	18	247	0.00	1027.907	0	0.000	0
20081220 07:10	1.4	-1.1	1.4	91	0.1	8	16	270	0.00	1027.840	0	0.000	0
20081220 07:15	1.3	-1.6	1.3	91	0.0	10	23	247	0.00	1027.873	0	0.000	0
20081220 07:20	1.3	-2.0	1.3	91	0.0	11	23	247	0.00	1028.009	0	0.000	0
20081220 07:25	1.3	-1.2	1.3	91	0.0	8	19	247	0.00	1028.043	0	0.000	0
20081220 07:30	1.3	-2.0	1.3	91	0.0	11	23	247	0.00	1028.009	0	0.000	0
20081220 07:35	1.3	-1.6	1.3	91	0.0	10	23	247	0.20	1028.077	0	0.000	0
20081220 07:40	1.3	-1.6	1.3	91	0.0	10	23	247	0.00	1028.009	0	0.000	0
20081220 07:45	1.3	-1.7	1.3	91	-0.0	10	19	247	0.00	1027.840	0	0.000	0
20081220 07:50	1.2	-1.4	1.2	91	-0.1	8	18	247	0.00	1027.772	0	0.000	0
20081220 07:55	1.1	-2.3	1.1	91	-0.2	11	21	247	0.20	1027.772	0	0.000	0
20081220 08:00	0.9	-1.6	0.9	91	-0.4	8	18	247	0.00	1027.704	0	0.000	0
20081220 08:05	0.8	-2.7	0.8	92	-0.4	11	18	247	0.00	1027.636	0	0.000	0
20081220 08:10	0.7	-1.9	0.7	92	-0.4	8	18	247	0.20	1027.535	0	0.000	0
20081220 08:15	0.7	-2.0	0.7	92	-0.5	8	19	247	0.00	1027.535	0	0.000	0
20081220 08:20	0.6	-2.5	0.6	92	-0.5	10	23	247	0.00	1027.467	0	0.000	0
20081220 08:25	0.6	-1.5	0.6	92	-0.6	6	19	247	0.00	1027.433	0	0.000	0
20081220 08:30	0.5	-1.6	0.5	92	-0.6	6	14	247	0.00	1027.399	3	0.000	0
20081220 08:35	0.5	0.5	0.5	93	-0.5	5	14	225	0.20	1027.332	5	0.000	0
20081220 08:40	0.5	-1.6	0.5	93	-0.5	6	14	247	0.00	1027.230	5	0.000	0
20081220 08:45	0.6	-2.0	0.6	93	-0.4	8	21	247	0.00	1027.230	5	0.000	0
20081220 08:50	0.7	-2.0	0.7	93	-0.3	8	18	247	0.00	1027.230	7	0.000	0
20081220 08:55	0.8	-1.3	0.8	93	-0.2	6	18	270	0.00	1027.162	8	0.000	0
20081220 09:00	0.8	-1.3	0.8	93	-0.2	6	16	247	0.00	1027.264	9	0.000	0
20081220 09:05	0.8	-1.8	0.8	93	-0.2	8	18	247	0.00	1027.365	11	0.000	0
20081220 09:10	0.9	-2.1	0.9	93	-0.1	10	21	247	0.20	1027.365	11	0.000	0
20081220 09:15	0.9	-2.5	0.9	93	-0.1	11	27	247	0.00	1027.298	11	0.000	0
20081220 09:20	1.1	-1.9	1.1	93	0.1	10	23	247	0.00	1027.365	9	0.000	0
20081220 09:25	1.1	-1.9	1.1	92	-0.0	10	21	247	0.00	1027.399	12	0.000	0
20081220 09:30	1.1	-2.3	1.1	92	-0.0	11	23	247	0.20	1027.399	12	0.000	0
20081220 09:35	1.1	-1.9	1.1	92	-0.0	10	19	247	0.00	1027.298	12	0.000	0
20081220 09:40	1.1	-1.9	1.1	92	-0.0	10	23	247	0.00	1027.061	12	0.000	0
20081220 09:45	1.1	-1.5	1.1	92	-0.1	8	21	247	0.20	1026.993	13	0.000	0
20081220 09:50	1.1	-1.9	1.1	92	-0.1	10	24	247	0.00	1026.824	16	0.000	0
20081220 09:55	1.1	-1.9	1.1	92	-0.1	10	24	225	0.00	1026.790	18	0.000	0
20081220 10:00	1.1	-1.9	1.1	92	-0.0	10	21	247	0.20	1026.756	22	0.000	0
20081220 10:05	1.2	-2.1	1.2	92	0.1	11	26	247	0.00	1026.587	20	0.000	0
20081220 10:10	1.3	-2.0	1.3	92	0.2	11	32	247	0.20	1026.519	22	0.000	0
20081220 10:15	1.3	-2.0	1.3	92	0.2	11	24	247	0.00	1026.451	24	0.000	0
20081220 10:20	1.5	-1.4	1.5	92	0.3	10	24	247	0.00	1026.451	21	0.000	0
20081220 10:25	1.6	-1.7	1.6	92	0.4	11	26	247	0.00	1026.383	26	0.000	0
20081220 10:30	1.7	-1.6	1.7	91	0.4	11	24	247	0.00	1026.282	34	0.000	0
20081220 10:35	1.8	-1.1	1.8	91	0.5	10	18	247	0.00	1026.180	35	0.000	0
20081220 10:40	1.8	-1.4	1.8	91	0.5	11	21	247	0.00	1026.113	33	0.000	0
20081220 10:45	2.0	-1.8	2.0	91	0.7	14	31	247	0.00	1025.875	32	0.000	0
20081220 10:50	2.1	-1.4	2.1	91	0.8	13	27	247	0.00	1025.875	31	0.000	0
20081220 10:55	2.2	-0.6	2.2	91	0.9	10	26	270	0.00	1025.875	25	0.000	0
20081220 11:00	2.3	-1.5	2.3	90	0.8	14	31	247	0.00	1025.909	24	0.020	0
20081220 11:05	2.3	-0.8	2.3	90	0.9	11	24	247	0.00	1025.875	23	0.000	0
20081220 11:10	2.4	-1.4	2.4	90	0.9	14	26	247	0.00	1025.808	25	0.000	0
20081220 11:15	2.5	-1.2	2.5	89	0.9	14	35	247	0.00	1025.774	22	0.000	0
20081220 11:20	2.6	-1.2	2.6	89	0.9	14	26	247	0.00	1025.672	25	0.000	0
20081220 11:25	2.6	-1.1	2.6	89	1.0	14	24	247	0.00	1025.638	24	0.000	0
20081220 11:30	2.7	-1.3	2.7	89	1.0	16	31	247	0.00	1025.672	27	0.000	0
20081220 11:35	2.7	-1.0	2.7	89	1.1	14	26	247	0.20	1025.300	44	0.000	0
20081220 11:40	2.8	-0.9	2.8	89	1.1	14	32	247	0.00	1025.334	50	0.000	0
20081220 11:45	2.8	-1.4	2.8	89	1.1	18	37	247	0.00	1025.334	42	0.000	0
20081220 11:50	2.8	-1.2	2.8	89	1.1	16	37	247	0.00	1025.401	37	0.000	0
20081220 11:55	2.8	-1.1	2.8	89	1.2	16	35	247	0.00	1025.401	40	0.000	0
20081220 12:00	2.8	-1.3	2.8	89	1.2	18	35	247	0.00	1025.232	35	0.020	0
20081220 12:05	2.8	-1.6	2.8	89	1.2	19	35	270	0.00	1025.300	35	0.000	0
20081220 12:10	2.9	-1.5	2.9	89	1.3	19	40	247	0.00	1025.029	30	0.000	0
20081220 12:15	2.9	-1.0	2.9	89	1.3	16	31	247	0.00	1024.995	34	0.000	0
20081220 12:20	2.9	-1.2	2.9	89	1.3	18	29	247	0.00	1025.164	26	0.000	0
20081220 12:25	2.9	-1.4	2.9	89	1.3	19	34	270	0.00	1025.266	22	0.000	0
20081220 12:30	2.9	-1.2	2.9	89	1.3	18	31	247	0.00	1025.164	24	0.000	0
20081220 12:35	2.9	-1.0	2.9	90	1.4	16	31	247	0.00	1024.893	30	0.000	0
20081220 12:40	2.9	-1.5	2.9	90	1.4	19	34	247	0.00	1024.961	39	0.000	0
20081220 12:45	2.9	-1.0	2.9	90	1.4	16	34	247	0.00	1024.995	42	0.000	0
20081220 12:50	2.9	-1.3	2.9	90	1.4	18	39	247	0.00	1025.130	32	0.000	0
20081220 12:55	2.9	-1.3	2.9	90	1.4	18	29	247	0.00	1025.097	31	0.000	0
20081220 13:00	2.9	-0.7	2.9	90	1.5	14	32	247	0.00	1024.961	32	0.020	0
20081220 13:05	2.9	-0.9	2.9	90	1.5	16	31	247	0.00	1024.826	36	0.000	0
20081220 13:10	3.1	-1.1	3.1	90	1.6	18	37	247	0.20	1024.690	44	0.000	0
20081220 13:15	3.1	-0.8	3.1	90	1.6	16	31	247	0.00	1024.623	43	0.000	0
20081220 13:20	3.1	-1.0	3.1	89	1.5	18	35	247	0.00	1024.589	46	0.000	0
20081220 13:25	3.2	-1.1	3.2	90	1.7	19	34	247	0.00	1024.724	33	0.000	0
20081220 13:30	3.2	-0.7	3.2	90	1.7	16	27	247	0.00	1024.656	28	0.000	0
20081220 13:35	3.2	-0.9	3.2	90	1.7	18	34	247	0.00	1024.724	24	0.000	0
20081220 13:40	3.2	-0.9	3.2	90	1.7	18	31	247	0.00	1024.690	21	0.000	0
20081220 13:45	3.2	-0.8	3.2	90	1.7	18	37	247	0.00	1024.724	21	0.000	0
20081220 13:50	3.2	-0.6	3.2	90	1.7	16	29	270	0.00	1024.623	21	0.000	0
20081220 13:55	3.3	-1.0	3.3	89	1.6	19	32	247	0.00	1024.521	24	0.000	0
20081220 14:00	3.3	-0.9	3.3	89	1.7	19	37	247	0.00	1024.623	22	0.020	0
20081220 14:05	3.3	-1.1	3.3	89	1.7	21	43	247	0.00	1024.555	21	0.000	0
20081220 14:10	3.3	-0.8	3.3	90	1.8	18	32	247	0.00	1024.555	29	0.000	0
20081220 14:15	3.3	-0.8	3.3	90	1.8	18	34	247	0.00	1024.521	26	0.000	0
20081220 14:20	3.2	-0.6	3.2	90	1.7	16	37	247	0.00	1024.487	23	0.000	0
20081220 14:25	3.2	-1.3	3.2	90	1.7	21	37	247	0.20	1024.318	24	0.000	0
20081220 14:30	3.3	-1.3	3.3	90	1.9	23	37	247	0.00	1024.284	24	0.000	0
20081220 14:35	3.3	-0.7	3.3	89	1.7	18	34	247	0.00	1024.589	19	0.000	0
20081220 14:40	3.3	-0.7	3.3	89	1.7	18	32	247	0.00	1024.589	16	0.000	0
20081220 14:45	3.4	-0.9	3.4	89	1.7	19	34	247	0.00	1024.487	18	0.000	0
20081220 14:50	3.4	-0.8	3.4	89	1.8	19	34	247	0.00	1024.284	19	0.000	0
20081220 14:55	3.5	-0.5	3.5	89	1.9	18	39	270	0.00	1024.182	18	0.000	0
20081220 15:00	3.4	-0.3	3.4	90	2.0	16	27	270	0.00	1024.385	14	0.020	0
20081220 15:05	3.4	-0.4	3.4	90	1.9	16	31	247	0.00	1024.318	12	0.000	0
20081220 15:10	3.4	-0.6	3.4	90	1.9	18	29	247	0.00	1024.419	8	0.000	0
20081220 15:15	3.4	-0.1	3.4	90	1.9	14	35	247	0.00	1024.589	6	0.000	0
20081220 15:20	3.4	-0.6	3.4	90	2.0	18	35	247	0.00	1024.792	3	0.000	0
20081220 15:25	3.5	-0.3	3.5	90	2.0	16	34	247	0.00	1024.487	3	0.000	0
20081220 15:30	3.6	-0.2	3.6	89	1.9	16	31	270	0.00	1024.656	6	0.000	0
20081220 15:35	3.7	-0.1	3.7	89	2.0	16	43	247	0.00	1024.453	5	0.000	0
20081220 15:40	3.8	-0.2	3.8	88	2.0	18	31	247	0.00	1024.589	3	0.000	0
20081220 15:45	3.8	0.1	3.8	88	2.0	16	24	247	0.00	1024.555	0	0.000	0
20081220 15:50	3.8	0.2	3.8	88	2.0	16	27	247	0.00	1024.284	0	0.000	0
20081220 15:55	3.8	0.4	3.8	88	2.0	14	27	247	0.00	1024.250	0	0.000	0
20081220 16:00	3.8	0.4	3.8	88	2.0	14	29	247	0.00	1024.216	0	0.020	0
20081220 16:05	3.8	0.2	3.8	88	2.0	16	31	247	0.00	1024.318	0	0.000	0
20081220 16:10	3.9	0.1	3.9	88	2.1	18	34	247	0.00	1024.318	0	0.000	0
20081220 16:15	3.9	0.5	3.9	88	2.1	14	31	247	0.00	1024.216	0	0.000	0
20081220 16:20	4.0	0.4	4.0	88	2.2	16	29	247	0.00	1024.216	0	0.000	0
20081220 16:25	4.0	0.1	4.0	88	2.2	18	34	247	0.00	1024.216	0	0.000	0
20081220 16:30	3.9	0.3	3.9	88	2.1	16	31	247	0.00	1024.284	0	0.000	0
20081220 16:35	3.9	0.1	3.9	89	2.3	18	32	247	0.00	1024.318	0	0.000	0
20081220 16:40	3.9	0.2	3.9	89	2.2	16	31	270	0.00	1024.115	0	0.000	0
20081220 16:45	3.8	0.2	3.8	89	2.2	16	31	247	0.00	1024.148	0	0.000	0
20081220 16:50	3.8	0.2	3.8	89	2.2	16	29	247	0.00	1024.081	0	0.000	0
20081220 16:55	3.8	-0.1	3.8	89	2.2	18	32	247	0.00	1024.250	0	0.000	0
20081220 17:00	3.9	-0.4	3.9	89	2.3	21	34	247	0.00	1024.216	0	0.020	0
20081220 17:05	4.0	0.1	4.0	89	2.4	18	32	247	0.00	1024.250	0	0.000	0
20081220 17:10	3.9	0.3	3.9	89	2.3	16	27	247	0.00	1024.013	0	0.000	0
20081220 17:15	4.0	0.1	4.0	89	2.4	18	31	247	0.00	1024.047	0	0.000	0
20081220 17:20	4.0	0.1	4.0	89	2.4	18	29	247	0.00	1024.182	0	0.000	0
20081220 17:25	3.9	0.1	3.9	90	2.5	18	31	247	0.00	1024.115	0	0.000	0
20081220 17:30	3.9	0.3	3.9	90	2.5	16	27	247	0.00	1024.115	0	0.000	0
20081220 17:35	4.0	0.1	4.0	89	2.4	18	31	247	0.00	1023.911	0	0.000	0
20081220 17:40	4.1	0.0	4.1	89	2.5	19	34	247	0.00	1024.115	0	0.000	0
20081220 17:45	4.2	0.8	4.2	89	2.5	14	27	247	0.00	1023.979	0	0.000	0
20081220 17:50	4.2	0.4	4.2	89	2.6	18	34	270	0.00	1023.945	0	0.000	0
20081220 17:55	4.2	0.4	4.2	89	2.6	18	35	247	0.00	1023.742	0	0.000	0
20081220 18:00	4.2	0.4	4.2	89	2.6	18	31	247	0.00	1023.878	0	0.020	0
20081220 18:05	4.3	0.5	4.3	88	2.5	18	40	270	0.00	1023.878	0	0.000	0
20081220 18:10	4.4	0.6	4.4	88	2.6	18	35	247	0.00	1023.945	0	0.000	0
20081220 18:15	4.4	0.7	4.4	88	2.6	18	39	247	0.00	1024.047	0	0.000	0
20081220 18:20	4.5	0.8	4.5	88	2.7	18	34	247	0.00	1024.148	0	0.000	0
20081220 18:25	4.6	0.8	4.6	87	2.6	18	34	247	0.00	1024.115	0	0.000	0
20081220 18:30	4.6	1.1	4.6	92	3.4	16	29	247	0.00	1024.013	0	0.000	0
20081220 18:35	4.7	0.6	4.7	87	2.7	21	43	247	0.00	1024.047	0	0.000	0
20081220 18:40	4.7	0.8	4.7	87	2.7	19	35	247	0.00	1023.979	0	0.000	0
20081220 18:45	4.7	1.0	4.7	87	2.7	18	34	247	0.00	1023.844	0	0.000	0
20081220 18:50	4.7	0.8	4.7	87	2.7	19	34	247	0.00	1023.776	0	0.000	0
20081220 18:55	4.7	1.0	4.7	87	2.7	18	34	247	0.00	1023.810	0	0.000	0
20081220 19:00	4.8	0.8	4.8	87	2.9	21	34	247	0.00	1023.708	0	0.020	0
20081220 19:05	4.9	1.2	4.9	87	2.9	18	35	247	0.00	1023.810	0	0.000	0
20081220 19:10	4.9	1.1	4.9	86	2.8	19	34	247	0.00	1024.047	0	0.000	0
20081220 19:15	4.9	1.1	4.9	86	2.8	19	42	247	0.00	1023.979	0	0.000	0
20081220 19:20	5.1	1.2	5.1	86	2.9	19	37	247	0.00	1023.844	0	0.000	0
20081220 19:25	5.1	1.0	5.1	86	2.9	21	34	247	0.00	1023.945	0	0.000	0
20081220 19:30	5.1	1.1	5.1	86	3.0	21	37	247	0.00	1023.911	0	0.000	0
20081220 19:35	5.1	1.2	5.1	87	3.1	19	34	247	0.00	1023.742	0	0.000	0
20081220 19:40	5.1	1.4	5.1	87	3.1	18	39	247	0.00	1023.945	0	0.000	0
20081220 19:45	5.1	1.7	5.1	86	2.9	16	32	247	0.00	1023.844	0	0.000	0
20081220 19:50	5.1	1.2	5.1	86	2.9	19	29	270	0.00	1023.844	0	0.000	0
20081220 19:55	5.1	1.5	5.1	87	3.1	18	32	247	0.00	1023.742	0	0.000	0
20081220 20:00	5.2	1.4	5.2	86	3.0	19	32	247	0.00	1023.674	0	0.020	0
20081220 20:05	5.2	1.4	5.2	87	3.2	19	34	247	0.00	1023.674	0	0.000	0
20081220 20:10	5.3	1.5	5.3	86	3.1	19	34	247	0.00	1023.708	0	0.000	0
20081220 20:15	5.3	1.7	5.3	86	3.1	18	34	247	0.00	1023.844	0	0.000	0
20081220 20:20	5.3	1.4	5.3	86	3.2	21	34	270	0.00	1023.742	0	0.000	0
20081220 20:25	5.4	1.9	5.4	86	3.2	18	34	247	0.00	1023.844	0	0.000	0
20081220 20:30	5.4	1.9	5.4	86	3.2	18	31	247	0.00	1024.115	0	0.000	0
20081220 20:35	5.4	1.9	5.4	86	3.3	18	35	270	0.00	1024.216	0	0.000	0
20081220 20:40	5.5	1.8	5.5	85	3.2	19	31	270	0.00	1024.148	0	0.000	0
20081220 20:45	5.5	2.0	5.5	85	3.2	18	34	270	0.00	1024.216	0	0.000	0
20081220 20:50	5.6	1.9	5.6	85	3.2	19	31	270	0.00	1024.182	0	0.000	0
20081220 20:55	5.6	1.7	5.6	85	3.3	21	37	247	0.00	1024.148	0	0.000	0
20081220 21:00	5.6	1.5	5.6	85	3.2	23	43	247	0.00	1024.216	0	0.020	0
20081220 21:05	5.6	1.6	5.6	85	3.3	23	35	247	0.00	1023.945	0	0.000	0
20081220 21:10	5.6	1.9	5.6	85	3.2	19	40	247	0.00	1023.979	0	0.000	0
20081220 21:15	5.5	1.8	5.5	85	3.2	19	37	247	0.00	1023.979	0	0.000	0
20081220 21:20	5.4	1.9	5.4	86	3.3	18	32	247	0.00	1024.047	0	0.000	0
20081220 21:25	5.4	2.2	5.4	86	3.3	16	35	247	0.00	1024.115	0	0.000	0
20081220 21:30	5.4	1.5	5.4	86	3.3	21	32	247	0.00	1024.216	0	0.000	0
20081220 21:35	5.4	1.7	5.4	86	3.3	19	34	247	0.00	1024.081	0	0.000	0
20081220 21:40	5.4	1.7	5.4	86	3.3	19	32	247	0.00	1024.216	0	0.000	0
20081220 21:45	5.4	2.3	5.4	87	3.4	14	42	247	0.00	1024.216	0	0.000	0
20081220 21:50	5.4	1.7	5.4	87	3.4	19	35	270	0.00	1023.979	0	0.000	0
20081220 21:55	5.3	1.2	5.3	87	3.3	23	35	270	0.00	1024.115	0	0.000	0
20081220 22:00	5.3	1.8	5.3	87	3.3	18	50	247	0.00	1024.284	0	0.020	0
20081220 22:05	5.3	1.5	5.3	88	3.5	19	50	247	0.00	1024.182	0	0.000	0
20081220 22:10	5.1	1.5	5.1	89	3.4	18	31	247	0.00	1024.013	0	0.000	0
20081220 22:15	5.1	1.2	5.1	89	3.4	19	39	247	0.20	1024.250	0	0.000	0
20081220 22:20	5.1	1.2	5.1	89	3.4	19	32	270	0.00	1024.385	0	0.000	0
20081220 22:25	5.1	1.0	5.1	89	3.4	21	35	247	0.00	1024.385	0	0.000	0
20081220 22:30	5.2	1.4	5.2	89	3.5	19	42	247	0.00	1024.453	0	0.000	0
20081220 22:35	5.2	1.2	5.2	89	3.5	21	37	247	0.00	1024.453	0	0.000	0
20081220 22:40	5.2	1.2	5.2	89	3.5	21	40	247	0.00	1024.589	0	0.000	0
20081220 22:45	5.2	1.4	5.2	89	3.5	19	40	247	0.00	1024.589	0	0.000	0
20081220 22:50	5.1	1.3	5.1	89	3.4	19	35	247	0.00	1024.555	0	0.000	0
20081220 22:55	5.1	1.7	5.1	90	3.6	16	26	270	0.00	1024.859	0	0.000	0
20081220 23:00	5.0	1.4	5.0	90	3.5	18	31	247	0.00	1024.961	0	0.020	0
20081220 23:05	5.0	1.2	5.0	90	3.5	19	43	247	0.20	1024.859	0	0.000	0
20081220 23:10	5.0	1.4	5.0	90	3.5	18	31	270	0.00	1024.893	0	0.000	0
20081220 23:15	4.9	1.3	4.9	90	3.4	18	34	270	0.00	1025.029	0	0.000	0
20081220 23:20	4.9	1.1	4.9	90	3.4	19	32	270	0.00	1025.266	0	0.000	0
20081220 23:25	5.1	1.0	5.1	90	3.6	21	34	270	0.00	1025.232	0	0.000	0
20081220 23:30	5.0	1.6	5.0	90	3.5	16	34	270	0.00	1025.232	0	0.000	0
20081220 23:35	5.1	1.4	5.1	90	3.6	18	37	270	0.00	1025.266	0	0.000	0
20081220 23:40	5.1	0.9	5.1	90	3.6	23	35	270	0.00	1025.604	0	0.000	0
20081220 23:45	5.1	0.9	5.1	90	3.6	23	35	270	0.00	1025.706	0	0.000	0
20081220 23:50	5.1	1.0	5.1	89	3.4	21	37	270	0.00	1025.706	0	0.000	0
20081220 23:55	5.1	1.2	5.1	90	3.6	19	34	270	0.00	1025.774	0	0.000	0
20081220 24:00	5.1	1.2	5.1	90	3.6	19	32	270	0.00	1025.774	0	0.020	0



Please note the license to use and transfer of this data:
http://creativecommons.org/licenses/by-nc-sa/3.0/deed.en

Bitte beachten sie die Lizenz zur Verwertung und Weitergabe der Daten:
http://creativecommons.org/licenses/by-nc-sa/3.0/deed.de

zurück zur Übersicht der Archivdaten (Monats und Tagesdaten)

Cookies helfen bei der Bereitstellung von Inhalten. Durch die Nutzung dieser Seiten erklärst du dich damit einverstanden, dass Cookies auf deinem Rechner gespeichert werden. Weitere Information